NCAR-RAP Real-Time Weather Data

Output produced by METARs form (06 May 2021  16:52 UTC)
found at http://weather.rap.ucar.edu/surface/
 
KEUG 061554Z 24007KT 10SM FEW020 FEW100 BKN250 14/07 A3000 RMK AO2 SLP157 T01390072
KEUG 061454Z 26007KT 10SM FEW100 BKN250 12/07 A2999 RMK AO2 SLP154 T01170072 53017
KEUG 061354Z 20005KT 10SM FEW100 BKN250 09/07 A2996 RMK AO2 SLP145 T00940067
KEUG 061254Z 00000KT 10SM SCT100 BKN250 10/06 A2995 RMK AO2 SLP139 T01000061
KEUG 061154Z AUTO 21008KT 10SM BKN110 11/07 A2994 RMK AO2 SLP137 T01110067 10156 20083 53008
KEUG 061054Z AUTO 20009KT 10SM CLR 09/06 A2993 RMK AO2 SLP133 T00940061
KEUG 060954Z AUTO 19007KT 10SM CLR 11/07 A2992 RMK AO2 SLP131 T01110072
KEUG 060854Z AUTO 19004KT 10SM FEW120 11/08 A2992 RMK AO2 SLP129 T01110078 50006
KEUG 060754Z AUTO 21008KT 10SM CLR 13/08 A2992 RMK AO2 SLP130 T01280078 402560056
KEUG 060654Z AUTO 21009KT 10SM CLR 14/08 A2991 RMK AO2 SLP126 T01440083
KEUG 060554Z 22009KT 10SM BKN250 16/09 A2990 RMK AO2 SLP123 T01560089 10256 20156 51019
KEUG 060454Z 23009KT 10SM BKN250 17/08 A2989 RMK AO2 SLP120 T01670083
KEUG 060354Z 24008KT 10SM FEW200 BKN250 19/07 A2986 RMK AO2 SLP112 T01890072